Time;durP1;ratioP1;P1;durP2;ratioP2;P2;SDS_P1;SDS_P2;PMS_P1;PMS_P2;Temp;Humidity;BMP_temperature;BMP_pressure;BME280_temperature;BME280_humidity;BME280_pressure;Samples;Min_cycle;Max_cycle;Signal;HPM_P1;HPM_P2
2023/08/12 00:00:34;;;;;;;17.27;10.13;;;;;;;;;;5056100;28;20041;-69
2023/08/12 00:03:00;;;;;;;21.80;10.77;;;;;;;;;;5058909;28;20102;-69
2023/08/12 00:05:26;;;;;;;23.40;10.43;;;;;;;;;;5071081;28;20034;-69
2023/08/12 00:07:52;;;;;;;20.23;10.55;;;;;;;;;;5084250;28;20111;-69
2023/08/12 00:10:18;;;;;;;28.88;10.40;;;;;;;;;;5055142;28;20043;-69
2023/08/12 00:12:45;;;;;;;21.50;9.15;;;;;;;;;;5080738;28;20020;-69
2023/08/12 00:15:11;;;;;;;17.17;9.05;;;;;;;;;;5078359;28;20137;-69
2023/08/12 00:17:41;;;;;;;18.88;10.07;;;;;;;;;;5080065;28;20110;-70
2023/08/12 00:20:10;;;;;;;18.58;9.50;;;;;;;;;;5079447;28;20111;-70
2023/08/12 00:22:36;;;;;;;19.67;9.32;;;;;;;;;;5076532;28;20032;-70
2023/08/12 00:25:02;;;;;;;16.63;9.65;;;;;;;;;;5060201;28;20028;-70
2023/08/12 00:27:29;;;;;;;20.40;11.20;;;;;;;;;;5054476;28;20154;-69
2023/08/12 00:29:55;;;;;;;19.63;10.45;;;;;;;;;;5081125;28;20025;-69
2023/08/12 00:32:21;;;;;;;21.65;10.82;;;;;;;;;;5069971;28;20447;-70
2023/08/12 00:34:47;;;;;;;22.48;10.77;;;;;;;;;;5056239;28;20056;-70
2023/08/12 00:37:13;;;;;;;22.60;11.10;;;;;;;;;;5084639;28;20031;-69
2023/08/12 00:39:39;;;;;;;26.10;11.43;;;;;;;;;;5057704;28;20037;-69
2023/08/12 00:42:06;;;;;;;18.77;11.18;;;;;;;;;;5083008;28;20040;-69
2023/08/12 00:44:32;;;;;;;23.38;12.60;;;;;;;;;;5060266;28;20021;-69
2023/08/12 00:47:00;;;;;;;24.65;13.05;;;;;;;;;;5064238;28;20046;-69
2023/08/12 00:49:27;;;;;;;26.83;14.32;;;;;;;;;;5053071;28;20033;-69
2023/08/12 00:51:54;;;;;;;28.67;14.07;;;;;;;;;;5082586;28;20090;-72
2023/08/12 00:54:22;;;;;;;24.73;13.68;;;;;;;;;;5069673;28;20175;-70
2023/08/12 00:56:52;;;;;;;35.63;14.25;;;;;;;;;;5072923;28;20020;-70
2023/08/12 00:59:18;;;;;;;32.42;14.65;;;;;;;;;;5063685;28;20055;-70
2023/08/12 01:01:45;;;;;;;27.77;14.85;;;;;;;;;;5056657;28;20028;-70
2023/08/12 01:04:11;;;;;;;35.15;16.30;;;;;;;;;;5068738;28;20536;-70
2023/08/12 01:06:37;;;;;;;31.63;14.98;;;;;;;;;;5054642;28;20073;-70
2023/08/12 01:09:05;;;;;;;34.22;16.92;;;;;;;;;;5064713;28;20040;-71
2023/08/12 01:11:50;;;;;;;34.05;17.58;;;;;;;;;;5069652;28;20027;-69
2023/08/12 01:14:48;;;;;;;31.98;16.17;;;;;;;;;;5063350;28;20074;-69
2023/08/12 01:17:15;;;;;;;33.67;16.38;;;;;;;;;;5024839;28;20051;-69
2023/08/12 01:19:43;;;;;;;36.95;17.30;;;;;;;;;;5078165;28;20100;-69
2023/08/12 01:22:10;;;;;;;43.50;19.58;;;;;;;;;;5076061;28;20024;-69
2023/08/12 01:24:38;;;;;;;36.13;18.80;;;;;;;;;;5075290;28;20503;-69
2023/08/12 01:27:04;;;;;;;37.45;19.20;;;;;;;;;;5035664;28;20044;-69
2023/08/12 01:29:31;;;;;;;40.95;20.85;;;;;;;;;;5070054;28;20033;-69
2023/08/12 01:32:04;;;;;;;43.53;21.65;;;;;;;;;;5079149;28;20091;-70
2023/08/12 01:34:40;;;;;;;43.53;21.45;;;;;;;;;;5060648;28;20048;-70
2023/08/12 01:37:09;;;;;;;46.97;22.02;;;;;;;;;;5080408;28;20021;-70
2023/08/12 01:39:36;;;;;;;48.95;21.35;;;;;;;;;;5072665;28;20052;-70
2023/08/12 01:42:02;;;;;;;46.70;21.70;;;;;;;;;;5064398;28;20059;-71
2023/08/12 01:44:28;;;;;;;39.50;20.85;;;;;;;;;;5064448;28;20038;-70
2023/08/12 01:46:55;;;;;;;43.55;22.65;;;;;;;;;;5066481;28;20052;-70
2023/08/12 01:49:23;;;;;;;44.38;21.25;;;;;;;;;;5085256;28;20028;-70
2023/08/12 01:51:49;;;;;;;44.30;20.40;;;;;;;;;;5050570;28;20036;-70
2023/08/12 01:54:15;;;;;;;45.15;21.25;;;;;;;;;;5083378;28;20029;-70
2023/08/12 01:56:41;;;;;;;45.65;21.30;;;;;;;;;;5074870;28;20504;-69
2023/08/12 01:59:07;;;;;;;44.00;21.42;;;;;;;;;;5069079;28;20032;-70
2023/08/12 02:01:33;;;;;;;50.40;22.35;;;;;;;;;;5088152;28;20032;-69
2023/08/12 02:03:59;;;;;;;43.63;21.55;;;;;;;;;;5073392;28;20135;-70
2023/08/12 02:06:26;;;;;;;42.15;21.77;;;;;;;;;;5075976;28;20027;-70
2023/08/12 02:08:52;;;;;;;50.33;23.63;;;;;;;;;;5081807;28;20185;-70
2023/08/12 02:11:18;;;;;;;40.92;21.20;;;;;;;;;;5061999;28;20036;-70
2023/08/12 02:13:44;;;;;;;43.00;21.33;;;;;;;;;;5054649;28;20055;-69
2023/08/12 02:16:10;;;;;;;41.90;22.70;;;;;;;;;;5071138;28;20111;-70
2023/08/12 02:18:36;;;;;;;44.83;21.83;;;;;;;;;;5071182;28;20564;-68
2023/08/12 02:21:02;;;;;;;41.80;22.85;;;;;;;;;;5085368;28;20051;-69
2023/08/12 02:23:29;;;;;;;40.53;22.83;;;;;;;;;;5091206;28;20039;-69
2023/08/12 02:25:55;;;;;;;44.38;22.60;;;;;;;;;;5065886;28;20062;-69
2023/08/12 02:28:22;;;;;;;41.45;22.75;;;;;;;;;;5084327;28;20028;-69
2023/08/12 02:30:48;;;;;;;48.75;25.02;;;;;;;;;;5061231;28;20032;-69
2023/08/12 02:33:14;;;;;;;43.38;23.30;;;;;;;;;;5090990;28;20061;-69
2023/08/12 02:35:40;;;;;;;52.95;24.77;;;;;;;;;;5080453;28;20048;-73
2023/08/12 02:38:06;;;;;;;50.30;25.00;;;;;;;;;;5057727;28;20033;-69
2023/08/12 02:40:32;;;;;;;48.22;24.77;;;;;;;;;;5057008;28;20047;-69
2023/08/12 02:42:58;;;;;;;43.75;25.33;;;;;;;;;;5059022;28;20409;-69
2023/08/12 02:45:24;;;;;;;47.75;24.70;;;;;;;;;;5075710;28;20089;-68
2023/08/12 02:47:50;;;;;;;48.67;25.77;;;;;;;;;;5073619;28;20029;-69
2023/08/12 02:50:17;;;;;;;42.70;24.27;;;;;;;;;;5044594;28;20049;-70
2023/08/12 02:52:43;;;;;;;53.25;26.10;;;;;;;;;;5072635;28;20036;-69
2023/08/12 02:55:09;;;;;;;52.33;25.85;;;;;;;;;;5060772;28;20047;-70
2023/08/12 02:57:35;;;;;;;56.33;27.20;;;;;;;;;;5064803;28;20114;-70
2023/08/12 03:00:01;;;;;;;53.78;26.85;;;;;;;;;;5076701;28;20118;-69
2023/08/12 03:02:27;;;;;;;52.03;26.88;;;;;;;;;;5067437;28;20032;-70
2023/08/12 03:04:54;;;;;;;47.78;26.45;;;;;;;;;;5048395;28;20493;-70
2023/08/12 03:07:20;;;;;;;52.83;26.08;;;;;;;;;;5053475;28;20128;-70
2023/08/12 03:09:47;;;;;;;49.78;25.70;;;;;;;;;;5041252;28;20044;-70
2023/08/12 03:12:13;;;;;;;49.40;27.02;;;;;;;;;;5076460;28;20134;-70
2023/08/12 03:14:39;;;;;;;50.22;25.88;;;;;;;;;;5059436;28;20035;-70
2023/08/12 03:17:06;;;;;;;50.15;26.85;;;;;;;;;;5054723;28;20055;-70
2023/08/12 03:19:34;;;;;;;43.60;24.90;;;;;;;;;;5050206;28;20029;-69
2023/08/12 03:22:00;;;;;;;53.30;26.25;;;;;;;;;;5071957;28;20028;-69
2023/08/12 03:24:26;;;;;;;46.08;25.58;;;;;;;;;;5067734;28;20047;-70
2023/08/12 03:26:53;;;;;;;51.33;25.42;;;;;;;;;;5055841;28;20016;-70
2023/08/12 03:29:19;;;;;;;42.90;25.65;;;;;;;;;;5054733;28;20039;-69
2023/08/12 03:31:48;;;;;;;50.38;25.92;;;;;;;;;;5052051;28;20032;-69
2023/08/12 03:34:14;;;;;;;45.70;26.33;;;;;;;;;;5067329;28;20085;-69
2023/08/12 03:36:43;;;;;;;47.58;26.40;;;;;;;;;;5063109;28;20393;-70
2023/08/12 03:39:10;;;;;;;52.17;27.17;;;;;;;;;;5056828;28;20024;-69
2023/08/12 03:41:36;;;;;;;46.22;25.80;;;;;;;;;;5073113;28;20081;-70
2023/08/12 03:44:05;;;;;;;51.83;28.50;;;;;;;;;;5068478;28;20128;-70
2023/08/12 03:46:32;;;;;;;43.67;26.25;;;;;;;;;;5049741;28;20040;-70
2023/08/12 03:48:58;;;;;;;52.30;27.77;;;;;;;;;;5056132;28;20036;-71
2023/08/12 03:51:25;;;;;;;51.53;28.17;;;;;;;;;;5057230;28;20122;-70
2023/08/12 03:53:52;;;;;;;48.03;27.98;;;;;;;;;;5061846;28;20028;-70
2023/08/12 03:56:18;;;;;;;55.13;29.02;;;;;;;;;;5060148;28;20028;-70
2023/08/12 03:58:44;;;;;;;58.35;30.02;;;;;;;;;;5066889;28;20410;-70
2023/08/12 04:01:11;;;;;;;49.15;28.65;;;;;;;;;;5062081;28;20403;-70
2023/08/12 04:03:37;;;;;;;50.55;29.17;;;;;;;;;;5049397;28;20127;-70
2023/08/12 04:06:03;;;;;;;51.65;30.33;;;;;;;;;;5063250;28;20040;-70
2023/08/12 04:08:32;;;;;;;60.05;30.83;;;;;;;;;;5065335;28;20120;-71
2023/08/12 04:10:58;;;;;;;61.88;30.17;;;;;;;;;;5055609;28;20539;-70
2023/08/12 04:13:25;;;;;;;62.80;31.55;;;;;;;;;;5053716;28;20489;-70
2023/08/12 04:15:56;;;;;;;63.13;32.35;;;;;;;;;;5043566;28;20079;-71
2023/08/12 04:18:22;;;;;;;65.63;30.60;;;;;;;;;;5064886;28;20070;-70
2023/08/12 04:20:50;;;;;;;56.40;31.73;;;;;;;;;;5058425;28;20490;-70
2023/08/12 04:23:16;;;;;;;62.42;31.88;;;;;;;;;;5059396;28;20025;-71
2023/08/12 04:25:49;;;;;;;63.60;32.88;;;;;;;;;;5060058;28;20047;-70
2023/08/12 04:28:18;;;;;;;62.50;32.40;;;;;;;;;;5063413;28;20097;-70
2023/08/12 04:30:45;;;;;;;62.38;32.65;;;;;;;;;;5061023;28;20090;-70
2023/08/12 04:33:13;;;;;;;63.78;31.42;;;;;;;;;;5063782;28;20052;-70
2023/08/12 04:35:39;;;;;;;55.80;30.92;;;;;;;;;;5058313;28;20012;-69
2023/08/12 04:38:06;;;;;;;57.35;32.00;;;;;;;;;;5066758;28;20085;-69
2023/08/12 04:40:33;;;;;;;60.17;31.60;;;;;;;;;;5047425;28;20045;-70
2023/08/12 04:42:59;;;;;;;62.22;30.83;;;;;;;;;;5043597;28;20376;-70
2023/08/12 04:45:26;;;;;;;62.75;29.23;;;;;;;;;;5054670;28;20155;-70
2023/08/12 04:47:53;;;;;;;52.28;30.08;;;;;;;;;;5048883;28;20040;-70
2023/08/12 04:50:19;;;;;;;55.55;30.92;;;;;;;;;;5054414;28;20098;-69
2023/08/12 04:52:46;;;;;;;55.95;30.15;;;;;;;;;;5051775;28;20025;-71
2023/08/12 04:55:13;;;;;;;52.45;29.67;;;;;;;;;;5051234;28;20128;-70
2023/08/12 04:57:39;;;;;;;57.13;30.63;;;;;;;;;;5051231;28;20508;-69
2023/08/12 05:00:11;;;;;;;56.42;30.45;;;;;;;;;;5032735;28;20025;-70
2023/08/12 05:02:39;;;;;;;52.80;28.83;;;;;;;;;;5053301;28;20037;-70
2023/08/12 05:05:05;;;;;;;54.90;28.98;;;;;;;;;;5053779;28;20024;-70
2023/08/12 05:07:33;;;;;;;53.00;29.38;;;;;;;;;;5064328;28;20029;-70
2023/08/12 05:10:00;;;;;;;50.45;29.08;;;;;;;;;;5053414;28;20136;-70
2023/08/12 05:12:26;;;;;;;61.03;28.95;;;;;;;;;;5056662;28;20090;-69
2023/08/12 05:14:52;;;;;;;54.60;29.20;;;;;;;;;;5062134;28;20095;-70
2023/08/12 05:17:18;;;;;;;58.00;30.20;;;;;;;;;;5060718;28;20028;-69
2023/08/12 05:19:45;;;;;;;54.42;29.48;;;;;;;;;;5064135;28;20025;-69
2023/08/12 05:22:11;;;;;;;52.70;28.52;;;;;;;;;;5064620;28;20401;-71
2023/08/12 05:24:37;;;;;;;51.45;28.25;;;;;;;;;;5067132;28;20031;-70
2023/08/12 05:27:04;;;;;;;49.92;29.35;;;;;;;;;;5065850;28;20082;-69
2023/08/12 05:29:30;;;;;;;46.67;28.17;;;;;;;;;;5066603;28;20486;-71
2023/08/12 05:31:56;;;;;;;50.25;29.63;;;;;;;;;;5055490;28;20036;-70
2023/08/12 05:34:22;;;;;;;46.20;29.05;;;;;;;;;;5060746;28;20078;-70
2023/08/12 05:36:49;;;;;;;50.22;28.13;;;;;;;;;;5075036;28;20485;-70
2023/08/12 05:39:15;;;;;;;47.97;30.17;;;;;;;;;;5064757;28;20021;-70
2023/08/12 05:41:42;;;;;;;52.20;30.33;;;;;;;;;;5066228;28;20044;-71
2023/08/12 05:44:08;;;;;;;53.78;30.67;;;;;;;;;;5066431;28;20029;-69
2023/08/12 05:46:34;;;;;;;49.60;32.67;;;;;;;;;;5059226;28;20029;-70
2023/08/12 05:49:00;;;;;;;65.00;32.55;;;;;;;;;;5063729;28;20040;-70
2023/08/12 05:51:26;;;;;;;60.90;33.83;;;;;;;;;;5082104;28;20039;-74
2023/08/12 05:53:52;;;;;;;58.90;35.22;;;;;;;;;;5093278;28;20032;-72
2023/08/12 05:56:18;;;;;;;58.38;35.13;;;;;;;;;;5065948;28;20048;-72
2023/08/12 05:58:44;;;;;;;57.17;34.83;;;;;;;;;;5083618;28;20032;-73
2023/08/12 06:01:11;;;;;;;60.22;34.33;;;;;;;;;;5083269;28;20294;-74
2023/08/12 06:03:37;;;;;;;66.18;34.53;;;;;;;;;;5064332;28;20040;-72
2023/08/12 06:06:03;;;;;;;67.40;35.65;;;;;;;;;;5057997;28;20978;-72
2023/08/12 06:08:29;;;;;;;82.70;37.65;;;;;;;;;;5086326;28;20435;-72
2023/08/12 06:10:55;;;;;;;78.85;36.10;;;;;;;;;;5087293;28;20123;-72
2023/08/12 06:13:22;;;;;;;80.80;38.67;;;;;;;;;;5093020;28;20027;-72
2023/08/12 06:15:48;;;;;;;56.30;31.45;;;;;;;;;;5064599;28;20033;-72
2023/08/12 06:18:14;;;;;;;52.70;21.05;;;;;;;;;;5084859;28;20028;-72
2023/08/12 06:20:41;;;;;;;42.97;21.73;;;;;;;;;;5081480;28;20035;-72
2023/08/12 06:23:07;;;;;;;53.75;20.83;;;;;;;;;;5086621;28;20561;-73
2023/08/12 06:25:33;;;;;;;37.55;18.95;;;;;;;;;;5081440;28;20032;-73
2023/08/12 06:27:59;;;;;;;31.17;15.18;;;;;;;;;;5081450;28;20028;-72
2023/08/12 06:30:25;;;;;;;32.78;15.43;;;;;;;;;;5059349;28;20482;-73
2023/08/12 06:32:51;;;;;;;35.00;18.23;;;;;;;;;;5058337;28;20449;-74
2023/08/12 06:35:17;;;;;;;26.88;14.63;;;;;;;;;;5060206;28;20032;-72
2023/08/12 06:37:44;;;;;;;29.80;13.70;;;;;;;;;;5080320;28;20227;-72
2023/08/12 06:40:10;;;;;;;29.73;14.23;;;;;;;;;;5077752;28;20038;-71
2023/08/12 06:42:36;;;;;;;24.77;12.95;;;;;;;;;;5078110;28;21747;-72
2023/08/12 06:45:03;;;;;;;19.73;10.50;;;;;;;;;;5085779;28;20046;-71
2023/08/12 06:47:30;;;;;;;19.48;8.57;;;;;;;;;;5093002;28;20127;-71
2023/08/12 06:49:56;;;;;;;14.70;7.78;;;;;;;;;;5086929;28;20048;-71
2023/08/12 06:52:22;;;;;;;14.85;8.13;;;;;;;;;;5065840;28;20487;-71
2023/08/12 06:54:48;;;;;;;27.45;8.27;;;;;;;;;;5084451;28;20040;-72
2023/08/12 06:57:14;;;;;;;18.58;7.70;;;;;;;;;;5092698;28;20052;-72
2023/08/12 06:59:41;;;;;;;16.95;7.35;;;;;;;;;;5089046;28;20405;-72
2023/08/12 07:02:07;;;;;;;17.98;7.93;;;;;;;;;;5055091;28;20051;-72
2023/08/12 07:04:33;;;;;;;9.95;6.43;;;;;;;;;;5052505;28;20032;-71
2023/08/12 07:07:00;;;;;;;14.95;6.72;;;;;;;;;;5071925;28;20036;-71
2023/08/12 07:09:26;;;;;;;11.30;6.80;;;;;;;;;;5077017;28;20039;-72
2023/08/12 07:11:52;;;;;;;12.63;7.35;;;;;;;;;;5082994;28;20063;-74
2023/08/12 07:14:18;;;;;;;11.32;6.85;;;;;;;;;;5070359;28;20031;-73
2023/08/12 07:16:44;;;;;;;12.65;7.03;;;;;;;;;;5068539;28;20036;-72
2023/08/12 07:19:11;;;;;;;13.57;7.65;;;;;;;;;;5077695;28;20024;-73
2023/08/12 07:21:37;;;;;;;15.65;9.60;;;;;;;;;;5089365;28;20035;-72
2023/08/12 07:24:03;;;;;;;15.35;9.10;;;;;;;;;;5088700;28;20100;-73
2023/08/12 07:26:30;;;;;;;17.95;9.13;;;;;;;;;;5024899;28;20051;-73
2023/08/12 07:28:57;;;;;;;18.52;10.35;;;;;;;;;;5086686;28;20043;-72
2023/08/12 07:31:26;;;;;;;15.07;9.68;;;;;;;;;;5088333;28;20111;-73
2023/08/12 07:33:52;;;;;;;19.08;10.07;;;;;;;;;;5052417;28;20440;-72
2023/08/12 07:36:18;;;;;;;13.52;8.10;;;;;;;;;;5082868;28;20036;-72
2023/08/12 07:38:44;;;;;;;10.13;8.15;;;;;;;;;;5074519;28;20444;-73
2023/08/12 07:41:10;;;;;;;10.63;6.95;;;;;;;;;;5078583;28;20028;-73
2023/08/12 07:43:37;;;;;;;9.77;6.63;;;;;;;;;;5082539;28;20058;-71
2023/08/12 07:46:04;;;;;;;10.75;7.38;;;;;;;;;;5067447;28;20036;-73
2023/08/12 07:48:30;;;;;;;14.68;7.75;;;;;;;;;;5057625;28;20443;-72
2023/08/12 07:50:59;;;;;;;13.85;8.48;;;;;;;;;;5056312;28;20522;-72
2023/08/12 07:53:26;;;;;;;12.10;7.20;;;;;;;;;;5073938;28;20037;-72
2023/08/12 07:55:52;;;;;;;14.18;7.38;;;;;;;;;;5075627;28;20029;-72
2023/08/12 07:58:19;;;;;;;10.98;7.20;;;;;;;;;;5071446;28;20111;-73
2023/08/12 08:00:45;;;;;;;7.90;4.90;;;;;;;;;;5079041;28;20040;-73
2023/08/12 08:03:11;;;;;;;6.97;4.72;;;;;;;;;;5084519;28;20028;-72
2023/08/12 08:05:41;;;;;;;5.82;3.92;;;;;;;;;;5072055;28;20033;-71
2023/08/12 08:08:07;;;;;;;5.40;4.13;;;;;;;;;;5071629;28;20111;-71
2023/08/12 08:10:33;;;;;;;6.03;4.18;;;;;;;;;;5071453;28;20123;-72
2023/08/12 08:12:59;;;;;;;3.60;2.58;;;;;;;;;;5081368;28;20027;-71
2023/08/12 08:15:25;;;;;;;4.15;2.55;;;;;;;;;;5091459;28;20028;-71
2023/08/12 08:17:51;;;;;;;3.83;2.45;;;;;;;;;;5090837;28;20028;-72
2023/08/12 08:20:17;;;;;;;3.50;2.70;;;;;;;;;;5090695;28;20074;-72
2023/08/12 08:22:44;;;;;;;3.10;2.33;;;;;;;;;;5061874;28;20067;-72
2023/08/12 08:25:10;;;;;;;5.18;2.80;;;;;;;;;;5070869;28;20028;-70
2023/08/12 08:27:36;;;;;;;8.10;3.80;;;;;;;;;;5052146;28;20083;-71
2023/08/12 08:30:03;;;;;;;9.00;3.88;;;;;;;;;;5080407;28;20417;-70
2023/08/12 08:32:29;;;;;;;9.02;4.63;;;;;;;;;;5088941;28;20139;-71
2023/08/12 08:34:55;;;;;;;10.60;4.50;;;;;;;;;;5065857;28;20028;-71
2023/08/12 08:37:21;;;;;;;8.48;3.40;;;;;;;;;;5069429;28;20068;-71
2023/08/12 08:39:47;;;;;;;10.25;3.50;;;;;;;;;;5057528;28;20020;-72
2023/08/12 08:42:18;;;;;;;11.98;3.25;;;;;;;;;;5060438;28;20130;-71
2023/08/12 08:44:46;;;;;;;10.40;3.65;;;;;;;;;;5090066;28;20114;-71
2023/08/12 08:47:12;;;;;;;14.07;4.43;;;;;;;;;;5083721;28;20024;-72
2023/08/12 08:49:39;;;;;;;12.93;4.22;;;;;;;;;;5062824;28;20055;-73
2023/08/12 08:52:05;;;;;;;15.20;4.35;;;;;;;;;;5056346;28;20032;-72
2023/08/12 08:54:31;;;;;;;12.80;4.50;;;;;;;;;;5073014;28;20113;-74
2023/08/12 08:56:57;;;;;;;16.05;4.88;;;;;;;;;;5052443;28;20438;-73
2023/08/12 08:59:24;;;;;;;16.20;5.70;;;;;;;;;;5070776;28;20093;-71
2023/08/12 09:01:51;;;;;;;14.73;4.82;;;;;;;;;;5062897;28;20501;-72
2023/08/12 09:04:17;;;;;;;11.90;4.97;;;;;;;;;;5075532;28;20020;-72
2023/08/12 09:06:44;;;;;;;19.48;4.85;;;;;;;;;;5054017;28;20115;-73
2023/08/12 09:09:13;;;;;;;17.50;5.00;;;;;;;;;;5074898;28;20089;-72
2023/08/12 09:11:40;;;;;;;20.08;4.43;;;;;;;;;;5070324;28;20024;-73
2023/08/12 09:14:06;;;;;;;8.57;3.47;;;;;;;;;;5084116;28;20028;-73
2023/08/12 09:16:32;;;;;;;11.43;3.90;;;;;;;;;;5042881;28;20041;-72
2023/08/12 09:18:58;;;;;;;15.65;3.75;;;;;;;;;;5074290;28;20090;-72
2023/08/12 09:21:25;;;;;;;17.05;3.42;;;;;;;;;;5072573;28;20031;-72
2023/08/12 09:23:51;;;;;;;13.13;4.45;;;;;;;;;;5073157;28;20124;-76
2023/08/12 09:26:18;;;;;;;16.67;3.90;;;;;;;;;;5044149;28;20064;-72
2023/08/12 09:28:45;;;;;;;18.05;4.72;;;;;;;;;;5070324;28;20090;-73
2023/08/12 09:31:24;;;;;;;12.52;3.40;;;;;;;;;;5073751;28;20024;-72
2023/08/12 09:33:50;;;;;;;21.92;4.07;;;;;;;;;;5085629;28;20028;-74
2023/08/12 09:36:17;;;;;;;13.70;3.35;;;;;;;;;;5075318;28;20295;-73
2023/08/12 09:38:44;;;;;;;9.65;3.00;;;;;;;;;;5051588;28;20449;-73
2023/08/12 09:41:10;;;;;;;10.45;3.30;;;;;;;;;;5051845;28;20032;-73
2023/08/12 09:43:41;;;;;;;15.93;3.35;;;;;;;;;;5052217;28;20035;-71
2023/08/12 09:46:07;;;;;;;9.07;2.63;;;;;;;;;;5084642;28;20047;-73
2023/08/12 09:48:33;;;;;;;11.25;3.17;;;;;;;;;;5072486;28;20028;-72
2023/08/12 09:51:00;;;;;;;10.40;3.28;;;;;;;;;;5070098;28;20129;-73
2023/08/12 09:53:26;;;;;;;9.27;2.65;;;;;;;;;;5074206;28;20035;-73
2023/08/12 09:55:53;;;;;;;7.85;2.80;;;;;;;;;;5067297;28;20064;-73
2023/08/12 09:58:22;;;;;;;10.30;2.88;;;;;;;;;;5070757;28;20020;-73
2023/08/12 10:00:48;;;;;;;9.50;2.30;;;;;;;;;;5080632;28;20028;-72
2023/08/12 10:03:16;;;;;;;7.50;2.40;;;;;;;;;;5087116;28;20024;-73
2023/08/12 10:05:42;;;;;;;8.25;1.80;;;;;;;;;;5074186;28;20086;-72
2023/08/12 10:08:09;;;;;;;8.10;2.20;;;;;;;;;;5073245;28;20040;-72
2023/08/12 10:10:36;;;;;;;10.75;2.60;;;;;;;;;;5086060;28;20027;-72
2023/08/12 10:13:06;;;;;;;8.52;2.67;;;;;;;;;;5092114;28;20067;-72
2023/08/12 10:15:33;;;;;;;7.53;2.13;;;;;;;;;;5089618;28;20089;-71
2023/08/12 10:17:59;;;;;;;6.47;1.98;;;;;;;;;;5080639;28;20127;-71
2023/08/12 10:20:25;;;;;;;13.48;2.72;;;;;;;;;;5075187;28;20052;-73
2023/08/12 10:22:52;;;;;;;8.25;2.40;;;;;;;;;;5092659;28;20552;-71
2023/08/12 10:25:21;;;;;;;9.63;2.42;;;;;;;;;;5055436;28;20136;-69
2023/08/12 10:27:48;;;;;;;8.65;2.33;;;;;;;;;;5074315;28;20036;-70
2023/08/12 10:30:15;;;;;;;5.93;2.33;;;;;;;;;;5059014;28;20060;-72
2023/08/12 10:32:41;;;;;;;9.82;2.75;;;;;;;;;;5093115;28;20086;-71
2023/08/12 10:35:08;;;;;;;8.27;2.38;;;;;;;;;;5074459;28;20031;-72
2023/08/12 10:37:34;;;;;;;10.48;2.35;;;;;;;;;;5092316;28;20032;-72
2023/08/12 10:40:08;;;;;;;10.05;2.03;;;;;;;;;;5090714;28;20065;-70
2023/08/12 10:42:44;;;;;;;10.27;2.55;;;;;;;;;;5093075;28;20118;-71
2023/08/12 10:45:11;;;;;;;9.63;2.67;;;;;;;;;;5062394;28;20043;-71
2023/08/12 10:47:52;;;;;;;7.65;2.40;;;;;;;;;;5087769;28;20055;-71
2023/08/12 10:50:22;;;;;;;5.68;1.83;;;;;;;;;;5072939;28;20052;-69
2023/08/12 10:52:52;;;;;;;7.78;2.25;;;;;;;;;;5074150;28;20036;-71
2023/08/12 10:55:18;;;;;;;6.93;1.83;;;;;;;;;;5092236;28;20032;-70
2023/08/12 10:57:45;;;;;;;11.23;2.15;;;;;;;;;;5092346;28;20101;-71
2023/08/12 11:00:13;;;;;;;7.30;2.10;;;;;;;;;;5090906;28;20032;-71
2023/08/12 11:02:40;;;;;;;7.07;2.20;;;;;;;;;;5090448;28;20024;-70
2023/08/12 11:05:11;;;;;;;9.70;2.50;;;;;;;;;;5073627;28;20038;-71
2023/08/12 11:07:40;;;;;;;8.90;2.05;;;;;;;;;;5092032;28;20073;-71
2023/08/12 11:10:19;;;;;;;10.20;2.67;;;;;;;;;;5092211;28;20031;-70
2023/08/12 11:12:54;;;;;;;7.53;2.22;;;;;;;;;;5073295;28;20071;-71
2023/08/12 11:15:33;;;;;;;7.05;1.98;;;;;;;;;;5088243;28;20409;-71
2023/08/12 11:18:00;;;;;;;11.65;2.40;;;;;;;;;;5092336;28;20028;-70
2023/08/12 11:20:31;;;;;;;9.30;2.17;;;;;;;;;;5091937;28;20485;-70
2023/08/12 11:22:58;;;;;;;8.85;2.10;;;;;;;;;;5091999;28;20036;-71
2023/08/12 11:25:24;;;;;;;9.85;2.33;;;;;;;;;;5080003;28;20063;-70
2023/08/12 11:27:51;;;;;;;10.35;2.30;;;;;;;;;;5052693;28;20028;-69
2023/08/12 11:30:18;;;;;;;9.48;1.95;;;;;;;;;;5071819;28;20033;-70
2023/08/12 11:32:45;;;;;;;10.60;3.25;;;;;;;;;;5082182;28;20039;-70
2023/08/12 11:35:11;;;;;;;11.85;2.50;;;;;;;;;;5089098;28;20024;-70
2023/08/12 11:37:38;;;;;;;8.60;2.13;;;;;;;;;;5070290;28;20028;-70
2023/08/12 11:40:05;;;;;;;10.13;2.47;;;;;;;;;;5061810;28;20028;-70
2023/08/12 11:42:31;;;;;;;10.85;2.30;;;;;;;;;;5073828;28;20031;-71
2023/08/12 11:44:57;;;;;;;11.30;2.63;;;;;;;;;;5080482;28;20085;-70
2023/08/12 11:47:24;;;;;;;8.77;2.08;;;;;;;;;;5086577;28;20403;-70
2023/08/12 11:49:52;;;;;;;8.52;2.33;;;;;;;;;;5051570;28;20025;-69
2023/08/12 11:52:19;;;;;;;9.20;2.35;;;;;;;;;;5086424;28;20064;-70
2023/08/12 11:54:46;;;;;;;11.70;3.25;;;;;;;;;;5084617;28;20032;-70
2023/08/12 11:57:12;;;;;;;10.13;2.55;;;;;;;;;;5053369;28;20041;-70
2023/08/12 11:59:38;;;;;;;8.95;1.95;;;;;;;;;;5079411;28;20071;-70
2023/08/12 12:02:05;;;;;;;9.35;2.40;;;;;;;;;;5071704;28;20303;-70
2023/08/12 12:04:32;;;;;;;8.80;2.40;;;;;;;;;;5073870;28;20040;-69
2023/08/12 12:06:59;;;;;;;10.07;2.28;;;;;;;;;;5052439;28;20028;-70
2023/08/12 12:09:26;;;;;;;12.10;2.90;;;;;;;;;;5078484;28;20382;-71
2023/08/12 12:11:56;;;;;;;14.50;2.55;;;;;;;;;;5075351;28;20028;-71
2023/08/12 12:14:22;;;;;;;12.10;3.03;;;;;;;;;;5063933;28;20097;-71
2023/08/12 12:16:49;;;;;;;11.75;3.00;;;;;;;;;;5080165;28;20033;-71
2023/08/12 12:19:19;;;;;;;9.45;2.45;;;;;;;;;;5081318;28;20028;-70
2023/08/12 12:21:46;;;;;;;8.95;2.53;;;;;;;;;;5074204;28;20040;-69
2023/08/12 12:24:12;;;;;;;7.75;2.60;;;;;;;;;;5070625;28;20032;-71
2023/08/12 12:26:38;;;;;;;12.60;2.72;;;;;;;;;;5061455;28;20118;-71
2023/08/12 12:29:08;;;;;;;11.65;3.03;;;;;;;;;;5077429;28;20028;-70
2023/08/12 12:31:36;;;;;;;10.33;2.80;;;;;;;;;;5085483;28;20031;-70
2023/08/12 12:34:05;;;;;;;11.18;2.63;;;;;;;;;;5088949;28;20118;-69
2023/08/12 12:36:32;;;;;;;9.48;2.78;;;;;;;;;;5089499;28;20081;-69
2023/08/12 12:38:58;;;;;;;14.45;3.35;;;;;;;;;;5063545;28;20439;-70
2023/08/12 12:41:24;;;;;;;13.20;3.17;;;;;;;;;;5072547;28;20025;-70
2023/08/12 12:43:50;;;;;;;13.63;2.90;;;;;;;;;;5080988;28;20051;-70
2023/08/12 12:46:16;;;;;;;12.90;2.92;;;;;;;;;;5070665;28;20070;-70
2023/08/12 12:48:43;;;;;;;13.80;3.30;;;;;;;;;;5070402;28;20055;-69
2023/08/12 12:51:10;;;;;;;10.75;2.75;;;;;;;;;;5053057;28;20119;-70
2023/08/12 12:53:36;;;;;;;11.82;2.80;;;;;;;;;;5055311;28;20040;-70
2023/08/12 12:56:03;;;;;;;11.52;2.92;;;;;;;;;;5061408;28;20028;-69
2023/08/12 12:58:31;;;;;;;12.18;2.75;;;;;;;;;;5065939;28;20032;-70
2023/08/12 13:00:57;;;;;;;13.68;3.10;;;;;;;;;;5062048;28;20040;-69
2023/08/12 13:03:23;;;;;;;8.50;2.42;;;;;;;;;;5062757;28;20040;-70
2023/08/12 13:05:50;;;;;;;10.95;3.08;;;;;;;;;;5057553;28;20021;-70
2023/08/12 13:08:16;;;;;;;10.27;2.75;;;;;;;;;;5065319;28;20044;-70
2023/08/12 13:10:42;;;;;;;14.20;3.22;;;;;;;;;;5066658;28;20025;-70
2023/08/12 13:13:08;;;;;;;9.10;2.53;;;;;;;;;;5056831;28;20040;-70
2023/08/12 13:15:35;;;;;;;10.75;2.92;;;;;;;;;;5062660;28;20509;-70
2023/08/12 13:18:01;;;;;;;13.15;3.00;;;;;;;;;;5059464;28;20044;-70
2023/08/12 13:20:27;;;;;;;12.18;3.08;;;;;;;;;;5048393;28;20170;-69
2023/08/12 13:22:55;;;;;;;13.77;3.15;;;;;;;;;;5056869;28;20048;-70
2023/08/12 13:25:21;;;;;;;15.70;3.78;;;;;;;;;;5058368;28;20398;-70
2023/08/12 13:27:47;;;;;;;13.15;3.15;;;;;;;;;;5055858;28;20036;-70
2023/08/12 13:30:13;;;;;;;9.80;2.60;;;;;;;;;;5049881;28;20120;-71
2023/08/12 13:32:39;;;;;;;11.88;3.45;;;;;;;;;;5047879;28;20025;-70
2023/08/12 13:35:06;;;;;;;10.75;2.63;;;;;;;;;;5049259;28;20233;-70
2023/08/12 13:37:33;;;;;;;9.02;2.50;;;;;;;;;;5063980;28;20028;-70
2023/08/12 13:39:59;;;;;;;17.45;2.72;;;;;;;;;;5072711;28;20039;-69
2023/08/12 13:42:25;;;;;;;10.20;2.83;;;;;;;;;;5072677;28;20044;-69
2023/08/12 13:44:51;;;;;;;11.45;2.53;;;;;;;;;;5066800;28;20108;-69
2023/08/12 13:47:17;;;;;;;14.73;3.05;;;;;;;;;;5071890;28;20044;-69
2023/08/12 13:49:44;;;;;;;11.55;2.80;;;;;;;;;;5067647;28;20455;-69
2023/08/12 13:52:10;;;;;;;11.30;3.08;;;;;;;;;;5071198;28;20044;-70
2023/08/12 13:54:36;;;;;;;9.05;2.33;;;;;;;;;;5075900;28;20051;-70
2023/08/12 13:57:04;;;;;;;18.85;2.67;;;;;;;;;;5092825;28;20098;-69
2023/08/12 13:59:30;;;;;;;10.15;2.90;;;;;;;;;;5090491;28;20051;-69
2023/08/12 14:01:56;;;;;;;13.85;3.55;;;;;;;;;;5062518;28;20040;-69
2023/08/12 14:04:22;;;;;;;13.00;3.13;;;;;;;;;;5079876;28;20054;-70
2023/08/12 14:06:48;;;;;;;13.55;3.28;;;;;;;;;;5082187;28;20127;-70
2023/08/12 14:09:17;;;;;;;14.02;3.17;;;;;;;;;;5073820;28;20119;-70
2023/08/12 14:11:43;;;;;;;13.32;3.30;;;;;;;;;;5088756;28;20032;-70
2023/08/12 14:14:09;;;;;;;19.65;3.30;;;;;;;;;;5080825;28;20659;-70
2023/08/12 14:16:36;;;;;;;12.20;3.00;;;;;;;;;;5077186;28;20027;-73
2023/08/12 14:19:03;;;;;;;12.32;2.88;;;;;;;;;;5084938;28;20040;-69
2023/08/12 14:21:29;;;;;;;16.20;3.13;;;;;;;;;;5069650;28;20055;-69
2023/08/12 14:23:55;;;;;;;11.10;2.85;;;;;;;;;;5089996;28;20040;-69